Time;durP1;ratioP1;P1;durP2;ratioP2;P2;SDS_P1;SDS_P2;PMS_P1;PMS_P2;Temp;Humidity;BMP_temperature;BMP_pressure;BME280_temperature;BME280_humidity;BME280_pressure;Samples;Min_cycle;Max_cycle;Signal;HPM_P1;HPM_P2
2023/11/22 00:01:37;;;;;;;6.00;2.00;;;;;;;;;;5054889;28;20408;-79
2023/11/22 00:04:03;;;;;;;1.80;1.60;;;;;;;;;;5054421;28;20778;-78
2023/11/22 00:06:31;;;;;;;3.10;1.83;;;;;;;;;;5054702;28;20776;-79
2023/11/22 00:08:57;;;;;;;4.07;1.87;;;;;;;;;;5023073;28;20437;-78
2023/11/22 00:11:24;;;;;;;2.27;1.70;;;;;;;;;;5033853;28;20475;-82
2023/11/22 00:13:55;;;;;;;3.20;1.33;;;;;;;;;;5014951;28;20762;-80
2023/11/22 00:16:21;;;;;;;3.03;1.60;;;;;;;;;;5020716;28;20417;-79
2023/11/22 00:18:47;;;;;;;4.77;2.43;;;;;;;;;;5034172;28;20474;-80
2023/11/22 00:21:13;;;;;;;5.37;2.00;;;;;;;;;;5034679;28;20915;-80
2023/11/22 00:23:39;;;;;;;3.30;2.20;;;;;;;;;;5034557;28;20417;-78
2023/11/22 00:26:06;;;;;;;3.30;2.33;;;;;;;;;;5018038;28;20419;-79
2023/11/22 00:28:32;;;;;;;2.73;1.17;;;;;;;;;;5030052;28;20911;-79
2023/11/22 00:30:58;;;;;;;4.27;2.13;;;;;;;;;;5014439;28;20462;-79
2023/11/22 00:33:24;;;;;;;3.30;2.30;;;;;;;;;;5014341;28;20415;-79
2023/11/22 00:35:50;;;;;;;5.33;2.80;;;;;;;;;;5014839;28;20410;-77
2023/11/22 00:38:16;;;;;;;4.30;2.20;;;;;;;;;;5034088;28;20623;-79
2023/11/22 00:40:42;;;;;;;2.73;0.73;;;;;;;;;;5034196;28;20417;-80
2023/11/22 00:43:08;;;;;;;4.17;1.73;;;;;;;;;;5034223;28;21047;-80
2023/11/22 00:45:35;;;;;;;3.37;1.77;;;;;;;;;;5034177;28;20415;-81
2023/11/22 00:48:01;;;;;;;3.20;2.23;;;;;;;;;;5034059;28;20782;-79
2023/11/22 00:50:26;;;;;;;4.27;2.33;;;;;;;;;;5027662;28;20436;-79
2023/11/22 00:52:53;;;;;;;3.00;1.80;;;;;;;;;;5031143;28;20433;-80
2023/11/22 00:55:19;;;;;;;3.03;1.77;;;;;;;;;;5025653;28;20421;-79
2023/11/22 00:57:45;;;;;;;3.50;2.40;;;;;;;;;;5020057;28;20456;-79
2023/11/22 01:00:12;;;;;;;5.87;2.50;;;;;;;;;;5019016;28;20416;-86
2023/11/22 01:02:38;;;;;;;4.97;2.00;;;;;;;;;;5031918;28;20419;-78
2023/11/22 01:05:15;;;;;;;4.60;2.23;;;;;;;;;;5033456;28;20403;-79
2023/11/22 01:07:41;;;;;;;3.23;2.07;;;;;;;;;;5005423;28;20434;-80
2023/11/22 01:10:07;;;;;;;4.00;1.43;;;;;;;;;;5045459;28;20776;-79
2023/11/22 01:12:33;;;;;;;4.60;3.07;;;;;;;;;;5053524;28;20546;-80
2023/11/22 01:14:59;;;;;;;3.00;1.60;;;;;;;;;;5053535;28;20413;-80
2023/11/22 01:17:25;;;;;;;3.30;2.20;;;;;;;;;;5053360;28;20906;-79
2023/11/22 01:19:52;;;;;;;3.83;2.40;;;;;;;;;;5068383;28;20418;-78
2023/11/22 01:22:17;;;;;;;3.67;2.20;;;;;;;;;;5053338;28;20483;-79
2023/11/22 01:24:47;;;;;;;3.60;1.93;;;;;;;;;;5053249;28;20455;-78
2023/11/22 01:27:13;;;;;;;4.00;2.30;;;;;;;;;;5068788;28;20425;-86
2023/11/22 01:29:39;;;;;;;5.40;3.33;;;;;;;;;;5053121;28;20880;-80
2023/11/22 01:32:05;;;;;;;3.37;2.63;;;;;;;;;;5053317;28;20417;-77
2023/11/22 01:34:31;;;;;;;2.77;2.20;;;;;;;;;;5068097;28;20420;-78
2023/11/22 01:36:57;;;;;;;4.67;2.83;;;;;;;;;;5052917;28;20414;-77
2023/11/22 01:39:23;;;;;;;3.43;2.50;;;;;;;;;;5053067;28;20983;-80
2023/11/22 01:41:49;;;;;;;3.10;2.20;;;;;;;;;;5053015;28;20408;-80
2023/11/22 01:44:15;;;;;;;4.20;2.20;;;;;;;;;;5053069;28;20821;-77
2023/11/22 01:46:42;;;;;;;5.67;1.73;;;;;;;;;;5053033;28;20404;-80
2023/11/22 01:49:09;;;;;;;5.17;2.63;;;;;;;;;;5052678;28;20413;-77
2023/11/22 01:51:40;;;;;;;3.03;2.23;;;;;;;;;;5052806;28;20769;-77
2023/11/22 01:54:07;;;;;;;5.90;2.47;;;;;;;;;;5043305;28;21498;-79
2023/11/22 01:56:34;;;;;;;5.67;2.80;;;;;;;;;;5033049;28;20405;-79
2023/11/22 01:59:00;;;;;;;7.33;2.93;;;;;;;;;;5032768;28;20474;-78
2023/11/22 02:01:27;;;;;;;3.53;2.20;;;;;;;;;;5032799;28;20909;-79
2023/11/22 02:03:53;;;;;;;5.03;2.40;;;;;;;;;;5030717;28;21009;-80
2023/11/22 02:06:19;;;;;;;3.60;2.30;;;;;;;;;;5032888;28;20489;-80
2023/11/22 02:08:45;;;;;;;4.23;2.93;;;;;;;;;;5032929;28;20763;-78
2023/11/22 02:11:11;;;;;;;3.97;1.90;;;;;;;;;;5031496;28;20423;-78
2023/11/22 02:13:37;;;;;;;4.23;2.20;;;;;;;;;;5032735;28;20912;-86
2023/11/22 02:16:03;;;;;;;4.83;2.50;;;;;;;;;;5032586;28;20475;-79
2023/11/22 02:18:30;;;;;;;3.73;1.90;;;;;;;;;;5032321;28;20513;-79
2023/11/22 02:20:56;;;;;;;5.57;3.10;;;;;;;;;;5032024;28;20408;-79
2023/11/22 02:23:22;;;;;;;3.67;2.40;;;;;;;;;;5032333;28;20459;-78
2023/11/22 02:25:48;;;;;;;5.20;2.80;;;;;;;;;;5031255;28;20413;-78
2023/11/22 02:28:14;;;;;;;5.07;2.43;;;;;;;;;;5032521;28;20968;-79
2023/11/22 02:30:41;;;;;;;5.83;2.47;;;;;;;;;;5032283;28;20463;-79
2023/11/22 02:33:07;;;;;;;4.17;2.43;;;;;;;;;;5032238;28;20817;-78
2023/11/22 02:35:33;;;;;;;6.23;2.40;;;;;;;;;;5031337;28;20425;-78
2023/11/22 02:38:00;;;;;;;5.33;2.67;;;;;;;;;;5032350;28;20464;-78
2023/11/22 02:40:25;;;;;;;3.73;2.73;;;;;;;;;;5032244;28;20431;-79
2023/11/22 02:42:53;;;;;;;4.47;2.73;;;;;;;;;;5032331;28;20415;-81
2023/11/22 02:45:22;;;;;;;6.73;3.47;;;;;;;;;;5031152;28;20423;-78
2023/11/22 02:47:49;;;;;;;5.67;3.03;;;;;;;;;;5032290;28;20819;-78
2023/11/22 02:50:15;;;;;;;6.23;3.00;;;;;;;;;;5032343;28;20409;-79
2023/11/22 02:52:41;;;;;;;10.90;3.00;;;;;;;;;;5032027;28;20502;-79
2023/11/22 02:55:09;;;;;;;4.27;2.60;;;;;;;;;;5031849;28;20436;-78
2023/11/22 02:57:36;;;;;;;4.10;3.70;;;;;;;;;;5031904;28;20457;-78
2023/11/22 03:00:03;;;;;;;4.07;2.33;;;;;;;;;;5032670;28;20417;-78
2023/11/22 03:02:29;;;;;;;3.67;2.87;;;;;;;;;;5032632;28;20793;-78
2023/11/22 03:04:55;;;;;;;3.43;2.20;;;;;;;;;;5032240;28;20471;-78
2023/11/22 03:07:21;;;;;;;4.93;3.27;;;;;;;;;;5032365;28;20400;-78
2023/11/22 03:09:47;;;;;;;7.17;2.90;;;;;;;;;;4992992;28;20933;-78
2023/11/22 03:12:14;;;;;;;4.60;3.80;;;;;;;;;;5030659;28;20418;-78
2023/11/22 03:14:40;;;;;;;5.10;3.37;;;;;;;;;;5032612;28;20444;-79
2023/11/22 03:17:06;;;;;;;3.53;2.70;;;;;;;;;;5035771;28;20405;-79
2023/11/22 03:19:33;;;;;;;5.40;3.13;;;;;;;;;;5051116;28;20561;-78
2023/11/22 03:21:59;;;;;;;5.20;3.43;;;;;;;;;;5035972;28;20492;-78
2023/11/22 03:24:25;;;;;;;6.70;3.13;;;;;;;;;;5036078;28;20496;-78
2023/11/22 03:26:52;;;;;;;5.77;3.30;;;;;;;;;;5036029;28;20404;-79
2023/11/22 03:29:18;;;;;;;5.80;3.40;;;;;;;;;;5035990;28;20419;-78
2023/11/22 03:31:46;;;;;;;5.90;2.67;;;;;;;;;;5035798;28;20456;-79
2023/11/22 03:34:12;;;;;;;3.80;3.13;;;;;;;;;;5035429;28;20420;-78
2023/11/22 03:36:40;;;;;;;5.80;4.20;;;;;;;;;;5035807;28;20513;-78
2023/11/22 03:39:06;;;;;;;8.30;3.43;;;;;;;;;;5035716;28;20832;-78
2023/11/22 03:41:32;;;;;;;6.23;2.57;;;;;;;;;;5035760;28;20421;-78
2023/11/22 03:43:58;;;;;;;6.43;3.57;;;;;;;;;;5035694;28;20411;-78
2023/11/22 03:46:24;;;;;;;4.63;2.87;;;;;;;;;;5034318;28;20422;-78
2023/11/22 03:48:49;;;;;;;6.47;3.07;;;;;;;;;;5033995;28;20515;-81
2023/11/22 03:51:15;;;;;;;4.43;2.90;;;;;;;;;;5035480;28;20941;-78
2023/11/22 03:53:41;;;;;;;4.20;3.37;;;;;;;;;;5035519;28;20417;-80
2023/11/22 03:56:07;;;;;;;7.53;3.20;;;;;;;;;;5035582;28;20769;-79
2023/11/22 03:58:33;;;;;;;4.50;2.77;;;;;;;;;;5034105;28;20475;-80
2023/11/22 04:01:02;;;;;;;5.57;3.30;;;;;;;;;;5035408;28;20408;-78
2023/11/22 04:03:28;;;;;;;6.07;4.00;;;;;;;;;;5035016;28;20413;-78
2023/11/22 04:05:54;;;;;;;7.80;3.50;;;;;;;;;;5035284;28;20773;-78
2023/11/22 04:08:20;;;;;;;6.60;4.20;;;;;;;;;;5033969;28;20428;-79
2023/11/22 04:10:47;;;;;;;9.30;3.13;;;;;;;;;;5033875;28;20417;-78
2023/11/22 04:13:13;;;;;;;5.53;2.47;;;;;;;;;;5035146;28;20418;-78
2023/11/22 04:15:39;;;;;;;5.27;4.20;;;;;;;;;;5035067;28;20412;-78
2023/11/22 04:18:05;;;;;;;7.60;4.30;;;;;;;;;;5034637;28;20867;-78
2023/11/22 04:20:31;;;;;;;4.60;3.10;;;;;;;;;;5035123;28;20421;-79
2023/11/22 04:22:56;;;;;;;4.67;3.30;;;;;;;;;;5035095;28;20397;-79
2023/11/22 04:25:23;;;;;;;5.57;4.20;;;;;;;;;;5034932;28;20757;-80
2023/11/22 04:27:49;;;;;;;6.13;3.97;;;;;;;;;;5034476;28;20781;-77
2023/11/22 04:30:17;;;;;;;6.60;3.40;;;;;;;;;;5033284;28;20457;-79
2023/11/22 04:32:49;;;;;;;5.80;3.63;;;;;;;;;;5034476;28;20445;-78
2023/11/22 04:35:15;;;;;;;5.97;3.83;;;;;;;;;;5054210;28;20988;-77
2023/11/22 04:37:41;;;;;;;7.87;3.83;;;;;;;;;;5054541;28;20498;-79
2023/11/22 04:40:09;;;;;;;7.47;4.10;;;;;;;;;;5054674;28;20436;-78
2023/11/22 04:42:39;;;;;;;10.20;4.23;;;;;;;;;;5069951;28;20435;-80
2023/11/22 04:45:06;;;;;;;7.20;4.30;;;;;;;;;;5054467;28;20450;-80
2023/11/22 04:47:32;;;;;;;4.43;2.70;;;;;;;;;;5054157;28;20416;-79
2023/11/22 04:49:58;;;;;;;8.40;3.67;;;;;;;;;;5054376;28;20448;-79
2023/11/22 04:52:24;;;;;;;6.30;4.33;;;;;;;;;;5054393;28;20441;-79
2023/11/22 04:54:49;;;;;;;9.07;3.97;;;;;;;;;;5054228;28;20471;-77
2023/11/22 04:57:15;;;;;;;6.77;4.03;;;;;;;;;;5054081;28;20411;-77
2023/11/22 04:59:42;;;;;;;6.70;4.73;;;;;;;;;;5054248;28;20796;-79
2023/11/22 05:02:08;;;;;;;5.17;4.27;;;;;;;;;;5054202;28;20418;-78
2023/11/22 05:04:34;;;;;;;8.80;4.83;;;;;;;;;;5053654;28;20511;-79
2023/11/22 05:07:00;;;;;;;4.50;4.07;;;;;;;;;;5054053;28;20978;-79
2023/11/22 05:09:29;;;;;;;7.30;3.80;;;;;;;;;;5053984;28;20760;-77
2023/11/22 05:11:55;;;;;;;8.70;4.33;;;;;;;;;;5053883;28;20461;-78
2023/11/22 05:14:21;;;;;;;8.50;4.03;;;;;;;;;;5053911;28;20503;-78
2023/11/22 05:16:56;;;;;;;7.37;4.77;;;;;;;;;;5069286;28;20903;-77
2023/11/22 05:19:22;;;;;;;8.67;4.67;;;;;;;;;;5053278;28;20471;-77
2023/11/22 05:21:48;;;;;;;8.37;5.23;;;;;;;;;;5053669;28;20443;-77
2023/11/22 05:24:15;;;;;;;6.47;4.60;;;;;;;;;;5053696;28;20469;-78
2023/11/22 05:26:41;;;;;;;9.10;6.30;;;;;;;;;;5069104;28;20408;-77
2023/11/22 05:29:07;;;;;;;8.03;5.33;;;;;;;;;;5053702;28;20895;-78
2023/11/22 05:31:32;;;;;;;6.80;4.47;;;;;;;;;;5053433;28;20495;-78
2023/11/22 05:33:58;;;;;;;5.13;3.80;;;;;;;;;;5053219;28;20470;-78
2023/11/22 05:36:24;;;;;;;7.83;4.43;;;;;;;;;;5053424;28;20443;-78
2023/11/22 05:38:50;;;;;;;6.73;4.90;;;;;;;;;;5052500;28;20476;-78
2023/11/22 05:41:16;;;;;;;8.57;4.33;;;;;;;;;;5053526;28;20400;-78
2023/11/22 05:43:42;;;;;;;8.10;5.40;;;;;;;;;;5053401;28;20839;-79
2023/11/22 05:46:08;;;;;;;6.90;4.40;;;;;;;;;;5053339;28;20448;-78
2023/11/22 05:48:35;;;;;;;7.13;4.93;;;;;;;;;;5052941;28;20404;-78
2023/11/22 05:51:01;;;;;;;6.73;4.70;;;;;;;;;;5053322;28;20405;-78
2023/11/22 05:53:26;;;;;;;6.67;4.07;;;;;;;;;;5053266;28;20471;-79
2023/11/22 05:55:53;;;;;;;5.40;3.77;;;;;;;;;;5053248;28;20736;-78
2023/11/22 05:58:18;;;;;;;6.10;3.90;;;;;;;;;;5068459;28;21071;-78
2023/11/22 06:00:45;;;;;;;7.17;4.67;;;;;;;;;;5063699;28;20514;-80
2023/11/22 06:03:11;;;;;;;7.17;4.87;;;;;;;;;;5032609;28;21038;-80
2023/11/22 06:05:37;;;;;;;7.40;4.73;;;;;;;;;;5032964;28;20405;-78
2023/11/22 06:08:03;;;;;;;8.20;4.40;;;;;;;;;;5031817;28;20464;-78
2023/11/22 06:10:29;;;;;;;6.37;4.83;;;;;;;;;;5033000;28;20824;-82
2023/11/22 06:12:56;;;;;;;5.63;3.80;;;;;;;;;;5033002;28;20503;-79
2023/11/22 06:15:22;;;;;;;9.10;4.40;;;;;;;;;;5033088;28;20402;-81
2023/11/22 06:17:51;;;;;;;8.70;3.97;;;;;;;;;;5036057;28;20470;-81
2023/11/22 06:20:18;;;;;;;7.33;5.00;;;;;;;;;;5039400;28;20834;-78
2023/11/22 06:22:44;;;;;;;8.03;4.97;;;;;;;;;;5042269;28;20416;-78
2023/11/22 06:25:10;;;;;;;6.90;4.10;;;;;;;;;;5055525;28;20431;-78
2023/11/22 06:27:36;;;;;;;11.47;5.27;;;;;;;;;;5052642;28;20465;-79
2023/11/22 06:30:02;;;;;;;7.23;4.67;;;;;;;;;;5052342;28;20472;-78
2023/11/22 06:32:28;;;;;;;9.33;4.70;;;;;;;;;;5047205;28;20917;-77
2023/11/22 06:34:54;;;;;;;8.03;5.40;;;;;;;;;;5032843;28;20408;-78
2023/11/22 06:37:20;;;;;;;5.50;4.83;;;;;;;;;;5032773;28;20406;-77
2023/11/22 06:39:47;;;;;;;6.20;4.37;;;;;;;;;;5032817;28;20482;-78
2023/11/22 06:42:13;;;;;;;7.97;4.53;;;;;;;;;;5032741;28;20405;-78
2023/11/22 06:44:39;;;;;;;8.10;5.53;;;;;;;;;;5032698;28;20797;-78
2023/11/22 06:47:07;;;;;;;8.73;5.87;;;;;;;;;;5032562;28;20412;-78
2023/11/22 06:49:33;;;;;;;7.87;5.00;;;;;;;;;;5033421;28;20503;-78
2023/11/22 06:51:59;;;;;;;10.60;6.43;;;;;;;;;;5036486;28;20400;-78
2023/11/22 06:54:25;;;;;;;17.20;8.33;;;;;;;;;;5036573;28;20418;-78
2023/11/22 06:56:51;;;;;;;12.63;8.17;;;;;;;;;;5036571;28;20889;-78
2023/11/22 06:59:20;;;;;;;11.63;7.13;;;;;;;;;;5036455;28;20468;-78
2023/11/22 07:01:46;;;;;;;11.60;7.20;;;;;;;;;;5035634;28;20777;-79
2023/11/22 07:04:11;;;;;;;8.00;6.30;;;;;;;;;;5036150;28;20177;-78
2023/11/22 07:06:38;;;;;;;10.00;6.37;;;;;;;;;;5035125;28;20421;-78
2023/11/22 07:09:04;;;;;;;9.17;6.40;;;;;;;;;;4997704;28;20911;-79
2023/11/22 07:11:31;;;;;;;10.50;7.50;;;;;;;;;;5035496;28;20419;-78
2023/11/22 07:14:00;;;;;;;8.20;6.70;;;;;;;;;;5036251;28;20417;-78
2023/11/22 07:16:26;;;;;;;10.03;6.30;;;;;;;;;;5036263;28;20424;-78
2023/11/22 07:18:52;;;;;;;9.03;5.57;;;;;;;;;;5035775;28;20476;-78
2023/11/22 07:21:18;;;;;;;14.37;6.90;;;;;;;;;;5036187;28;20409;-78
2023/11/22 07:23:45;;;;;;;13.47;6.20;;;;;;;;;;5034767;28;20420;-77
2023/11/22 07:26:13;;;;;;;9.30;5.73;;;;;;;;;;5035987;28;20415;-78
2023/11/22 07:28:39;;;;;;;9.27;5.60;;;;;;;;;;5035970;28;20773;-79
2023/11/22 07:31:07;;;;;;;10.73;6.07;;;;;;;;;;5035751;28;20464;-78
2023/11/22 07:33:33;;;;;;;10.23;5.80;;;;;;;;;;5035565;28;20910;-77
2023/11/22 07:35:59;;;;;;;9.27;6.40;;;;;;;;;;5035922;28;20417;-77
2023/11/22 07:38:25;;;;;;;9.23;6.40;;;;;;;;;;5035883;28;20539;-77
2023/11/22 07:40:51;;;;;;;9.63;5.70;;;;;;;;;;5035735;28;20452;-77
2023/11/22 07:43:18;;;;;;;12.30;7.73;;;;;;;;;;5035858;28;20427;-77
2023/11/22 07:45:44;;;;;;;7.63;5.57;;;;;;;;;;5035742;28;20752;-77
2023/11/22 07:48:13;;;;;;;13.33;6.17;;;;;;;;;;5035337;28;20478;-77
2023/11/22 07:50:42;;;;;;;8.83;6.13;;;;;;;;;;5035555;28;20508;-77
2023/11/22 07:53:08;;;;;;;9.67;6.83;;;;;;;;;;5035514;28;20476;-79
2023/11/22 07:55:37;;;;;;;9.10;5.40;;;;;;;;;;5035464;28;20784;-85
2023/11/22 07:58:06;;;;;;;10.33;6.27;;;;;;;;;;5035461;28;20503;-78
2023/11/22 08:00:33;;;;;;;8.53;5.47;;;;;;;;;;5035368;28;20420;-78
2023/11/22 08:03:01;;;;;;;10.30;6.93;;;;;;;;;;5034745;28;20407;-84
2023/11/22 08:05:27;;;;;;;10.20;7.00;;;;;;;;;;5035439;28;20428;-85
2023/11/22 08:07:53;;;;;;;11.53;6.27;;;;;;;;;;5035267;28;20953;-82
2023/11/22 08:10:19;;;;;;;10.17;6.10;;;;;;;;;;5035271;28;20444;-80
2023/11/22 08:12:46;;;;;;;10.90;5.40;;;;;;;;;;5035340;28;20409;-81
2023/11/22 08:15:12;;;;;;;9.80;6.23;;;;;;;;;;4995060;28;20449;-79
2023/11/22 08:17:39;;;;;;;8.47;6.63;;;;;;;;;;5034853;28;20417;-81
2023/11/22 08:20:05;;;;;;;8.33;6.20;;;;;;;;;;5035302;28;20438;-77
2023/11/22 08:22:35;;;;;;;9.93;6.33;;;;;;;;;;5044295;28;20502;-81
2023/11/22 08:25:01;;;;;;;9.10;7.10;;;;;;;;;;5054925;28;20420;-78
2023/11/22 08:27:27;;;;;;;9.43;6.30;;;;;;;;;;5054884;28;20412;-78
2023/11/22 08:29:52;;;;;;;9.67;7.90;;;;;;;;;;5054534;28;20806;-78
2023/11/22 08:32:22;;;;;;;10.03;7.53;;;;;;;;;;5054474;28;20472;-78
2023/11/22 08:34:48;;;;;;;7.60;5.87;;;;;;;;;;5054782;28;20479;-78
2023/11/22 08:37:13;;;;;;;9.33;7.20;;;;;;;;;;5055080;28;20833;-78
2023/11/22 08:39:39;;;;;;;9.53;6.63;;;;;;;;;;5054460;28;20560;-78
2023/11/22 08:42:09;;;;;;;8.20;6.03;;;;;;;;;;5054473;28;20436;-83
2023/11/22 08:44:35;;;;;;;8.73;5.27;;;;;;;;;;5054570;28;20412;-78
2023/11/22 08:47:01;;;;;;;12.37;6.93;;;;;;;;;;5054038;28;20430;-78
2023/11/22 08:49:27;;;;;;;7.57;6.77;;;;;;;;;;5054499;28;20888;-79
2023/11/22 08:51:53;;;;;;;8.57;7.20;;;;;;;;;;5054346;28;20422;-79
2023/11/22 08:54:19;;;;;;;11.17;7.70;;;;;;;;;;5069632;28;20447;-78
2023/11/22 08:56:48;;;;;;;8.40;7.13;;;;;;;;;;5054314;28;20418;-78
2023/11/22 08:59:16;;;;;;;8.70;6.30;;;;;;;;;;5054215;28;20964;-78
2023/11/22 09:01:45;;;;;;;10.07;7.10;;;;;;;;;;5054277;28;20399;-78
2023/11/22 09:04:11;;;;;;;10.00;8.27;;;;;;;;;;5069551;28;20508;-78
2023/11/22 09:06:37;;;;;;;9.13;7.73;;;;;;;;;;5054031;28;21252;-78
2023/11/22 09:09:03;;;;;;;10.33;7.67;;;;;;;;;;5069721;28;20408;-88
2023/11/22 09:11:29;;;;;;;7.50;5.90;;;;;;;;;;5042033;28;20413;-81
2023/11/22 09:13:57;;;;;;;8.43;7.40;;;;;;;;;;4984713;28;20440;-76
2023/11/22 09:16:24;;;;;;;9.00;7.63;;;;;;;;;;5034431;28;20441;-81
2023/11/22 09:18:50;;;;;;;12.47;9.40;;;;;;;;;;5043363;28;20473;-82
2023/11/22 09:21:16;;;;;;;11.20;8.97;;;;;;;;;;5038990;28;20421;-77
2023/11/22 09:23:48;;;;;;;12.50;7.50;;;;;;;;;;5048767;28;20408;-76
2023/11/22 09:26:14;;;;;;;13.00;7.67;;;;;;;;;;5053884;28;20393;-77
2023/11/22 09:28:43;;;;;;;11.60;7.13;;;;;;;;;;5039740;28;20469;-78
2023/11/22 09:31:13;;;;;;;12.57;9.30;;;;;;;;;;5033364;28;20999;-77
2023/11/22 09:33:39;;;;;;;11.70;8.47;;;;;;;;;;5033328;28;20761;-79
2023/11/22 09:36:05;;;;;;;12.70;8.20;;;;;;;;;;5033392;28;20462;-79
2023/11/22 09:38:31;;;;;;;11.37;7.60;;;;;;;;;;5031911;28;20491;-80
2023/11/22 09:40:59;;;;;;;10.67;8.20;;;;;;;;;;5033336;28;20499;-79
2023/11/22 09:43:26;;;;;;;14.00;8.90;;;;;;;;;;5032419;28;20411;-80
2023/11/22 09:45:54;;;;;;;10.97;8.47;;;;;;;;;;5032773;28;20408;-79
2023/11/22 09:48:22;;;;;;;11.33;7.97;;;;;;;;;;5030935;28;21004;-80
2023/11/22 09:50:55;;;;;;;10.60;7.50;;;;;;;;;;5032376;28;20419;-79
2023/11/22 09:53:39;;;;;;;12.50;7.63;;;;;;;;;;5033089;28;20409;-79
2023/11/22 09:56:08;;;;;;;10.83;7.90;;;;;;;;;;5033300;28;20405;-79
2023/11/22 09:58:34;;;;;;;10.37;6.30;;;;;;;;;;5032612;28;20891;-80
2023/11/22 10:01:00;;;;;;;9.57;7.27;;;;;;;;;;5033009;28;20409;-87
2023/11/22 10:03:30;;;;;;;11.60;7.00;;;;;;;;;;5033086;28;20416;-81
2023/11/22 10:05:59;;;;;;;9.87;6.50;;;;;;;;;;5033147;28;20475;-81
2023/11/22 10:08:29;;;;;;;12.37;6.90;;;;;;;;;;5032937;28;20413;-80
2023/11/22 10:10:55;;;;;;;13.97;7.10;;;;;;;;;;5031598;28;20777;-80
2023/11/22 10:13:22;;;;;;;9.60;6.67;;;;;;;;;;5032970;28;20502;-81
2023/11/22 10:15:49;;;;;;;12.07;7.50;;;;;;;;;;5001812;28;20433;-82
2023/11/22 10:18:17;;;;;;;11.53;6.57;;;;;;;;;;5052283;28;20456;-83
2023/11/22 10:20:46;;;;;;;9.20;5.67;;;;;;;;;;5052903;28;20423;-79
2023/11/22 10:23:15;;;;;;;7.60;5.30;;;;;;;;;;5052838;28;20403;-79
2023/11/22 10:25:49;;;;;;;9.87;6.57;;;;;;;;;;5046222;28;20432;-80
2023/11/22 10:28:17;;;;;;;8.63;6.17;;;;;;;;;;5039288;28;20404;-81
2023/11/22 10:30:43;;;;;;;8.73;6.20;;;;;;;;;;5047019;28;20476;-82
2023/11/22 10:33:13;;;;;;;9.40;6.37;;;;;;;;;;5050098;28;20435;-84
2023/11/22 10:35:40;;;;;;;7.03;5.73;;;;;;;;;;5059499;28;20405;-87
2023/11/22 10:38:08;;;;;;;8.90;6.73;;;;;;;;;;5058230;28;20944;-84
2023/11/22 10:40:34;;;;;;;11.63;7.70;;;;;;;;;;5058245;28;20466;-83
2023/11/22 10:43:00;;;;;;;8.17;6.17;;;;;;;;;;5058448;28;20452;-81
2023/11/22 10:45:30;;;;;;;6.67;5.60;;;;;;;;;;5059402;28;20419;-80
2023/11/22 10:47:57;;;;;;;7.93;5.90;;;;;;;;;;5042972;28;20510;-83
2023/11/22 10:50:23;;;;;;;7.60;5.63;;;;;;;;;;5057715;28;20415;-84
2023/11/22 10:52:55;;;;;;;9.10;6.87;;;;;;;;;;5057924;28;20416;-88
2023/11/22 10:55:22;;;;;;;9.80;6.97;;;;;;;;;;5059577;28;20465;-82
2023/11/22 10:57:51;;;;;;;10.47;5.23;;;;;;;;;;5059307;28;20452;-86
2023/11/22 11:00:19;;;;;;;9.37;5.27;;;;;;;;;;5043008;28;20421;-87
2023/11/22 11:02:49;;;;;;;7.43;4.93;;;;;;;;;;5039406;28;20409;-87
2023/11/22 11:05:18;;;;;;;7.73;4.80;;;;;;;;;;5039674;28;20417;-82
2023/11/22 11:07:46;;;;;;;11.50;5.20;;;;;;;;;;5039665;28;20500;-89
2023/11/22 11:10:13;;;;;;;6.53;5.00;;;;;;;;;;5042095;28;20448;-92
2023/11/22 11:12:39;;;;;;;8.27;5.17;;;;;;;;;;5041037;28;20421;-86
2023/11/22 11:15:05;;;;;;;8.17;5.50;;;;;;;;;;5014842;28;21062;-78
2023/11/22 11:17:34;;;;;;;6.97;5.33;;;;;;;;;;5050207;28;20429;-89
2023/11/22 11:20:00;;;;;;;8.77;4.47;;;;;;;;;;5044190;28;20508;-83
2023/11/22 11:22:25;;;;;;;5.50;4.23;;;;;;;;;;5039245;28;20512;-83
2023/11/22 11:25:00;;;;;;;7.40;4.23;;;;;;;;;;5037882;28;20425;-83
2023/11/22 11:27:29;;;;;;;6.23;3.30;;;;;;;;;;5039011;28;20397;-81
2023/11/22 11:29:55;;;;;;;3.97;2.37;;;;;;;;;;5038664;28;20437;-80
2023/11/22 11:32:32;;;;;;;5.03;2.87;;;;;;;;;;5038771;28;20398;-85
2023/11/22 11:35:00;;;;;;;7.10;2.73;;;;;;;;;;5039086;28;20416;-83
2023/11/22 11:37:26;;;;;;;13.53;2.37;;;;;;;;;;5034585;28;20810;-79
2023/11/22 11:39:52;;;;;;;4.00;1.97;;;;;;;;;;5035522;28;20472;-78
2023/11/22 11:42:18;;;;;;;4.27;2.07;;;;;;;;;;5035765;28;20417;-77
2023/11/22 11:45:02;;;;;;;3.50;1.57;;;;;;;;;;5035822;28;20417;-78
2023/11/22 11:47:28;;;;;;;3.30;1.80;;;;;;;;;;5035303;28;20419;-78
2023/11/22 11:49:56;;;;;;;2.20;1.27;;;;;;;;;;5035691;28;20401;-78
2023/11/22 11:52:21;;;;;;;5.17;1.57;;;;;;;;;;5035610;28;20766;-81
2023/11/22 11:54:50;;;;;;;3.60;1.70;;;;;;;;;;5035590;28;20416;-81
2023/11/22 11:57:16;;;;;;;3.00;2.17;;;;;;;;;;5040902;28;20828;-80
2023/11/22 11:59:42;;;;;;;2.90;1.17;;;;;;;;;;5037894;28;20500;-78
2023/11/22 12:02:09;;;;;;;3.23;1.17;;;;;;;;;;5034989;28;20463;-78
2023/11/22 12:04:34;;;;;;;3.07;0.93;;;;;;;;;;5035254;28;20968;-78
2023/11/22 12:07:03;;;;;;;2.50;0.97;;;;;;;;;;5034945;28;20501;-78
2023/11/22 12:09:29;;;;;;;2.20;1.00;;;;;;;;;;5035140;28;20445;-81
2023/11/22 12:11:55;;;;;;;3.80;1.60;;;;;;;;;;5035449;28;20497;-80
2023/11/22 12:14:23;;;;;;;3.77;1.40;;;;;;;;;;5035370;28;20450;-79
2023/11/22 12:16:51;;;;;;;2.70;1.70;;;;;;;;;;5008537;28;20469;-80
2023/11/22 12:19:23;;;;;;;4.07;1.17;;;;;;;;;;5026034;28;20567;-78
2023/11/22 12:21:49;;;;;;;2.50;1.47;;;;;;;;;;5035102;28;20411;-81
2023/11/22 12:24:19;;;;;;;3.20;1.37;;;;;;;;;;5034984;28;20468;-77
2023/11/22 12:26:45;;;;;;;4.27;1.40;;;;;;;;;;5035025;28;20433;-80
2023/11/22 12:29:15;;;;;;;2.53;0.83;;;;;;;;;;5034917;28;20421;-79
2023/11/22 12:31:46;;;;;;;3.30;2.13;;;;;;;;;;5037106;28;20509;-80
2023/11/22 12:34:12;;;;;;;3.90;2.03;;;;;;;;;;5033440;28;20451;-80
2023/11/22 12:36:38;;;;;;;2.33;1.07;;;;;;;;;;5034918;28;20831;-79
2023/11/22 12:39:08;;;;;;;1.23;0.80;;;;;;;;;;5035317;28;20476;-86
2023/11/22 12:41:34;;;;;;;1.93;1.30;;;;;;;;;;5035973;28;20413;-89
2023/11/22 12:44:06;;;;;;;1.37;0.50;;;;;;;;;;5036100;28;20417;-88
2023/11/22 12:46:49;;;;;;;2.93;1.53;;;;;;;;;;5035719;28;20409;-80
2023/11/22 12:49:16;;;;;;;2.80;1.10;;;;;;;;;;5035353;28;20429;-80
2023/11/22 12:51:52;;;;;;;2.90;1.53;;;;;;;;;;5035333;28;20504;-86
2023/11/22 12:54:21;;;;;;;3.57;1.50;;;;;;;;;;5035070;28;20412;-83
2023/11/22 12:56:49;;;;;;;1.50;0.80;;;;;;;;;;5035193;28;20540;-80
2023/11/22 12:59:15;;;;;;;3.17;1.00;;;;;;;;;;5035237;28;20866;-90
2023/11/22 13:01:41;;;;;;;3.73;1.10;;;;;;;;;;5034964;28;20475;-85
2023/11/22 13:04:08;;;;;;;1.33;0.87;;;;;;;;;;5035377;28;20422;-83
2023/11/22 13:06:37;;;;;;;1.87;0.53;;;;;;;;;;5034414;28;20492;-79
2023/11/22 13:09:03;;;;;;;2.53;1.10;;;;;;;;;;5041474;28;20933;-89
2023/11/22 13:11:29;;;;;;;1.53;0.73;;;;;;;;;;5035920;28;20411;-89
2023/11/22 13:13:56;;;;;;;2.17;1.03;;;;;;;;;;5035012;28;20992;-83
2023/11/22 13:16:21;;;;;;;2.33;1.33;;;;;;;;;;5032695;28;20422;-81
2023/11/22 13:18:48;;;;;;;3.03;1.00;;;;;;;;;;4981926;28;20473;-78
2023/11/22 13:21:14;;;;;;;7.30;1.57;;;;;;;;;;5036409;28;20503;-78
2023/11/22 13:23:40;;;;;;;3.00;1.13;;;;;;;;;;5034197;28;20521;-78
2023/11/22 13:26:09;;;;;;;3.10;1.40;;;;;;;;;;5034207;28;20420;-79
2023/11/22 13:28:35;;;;;;;3.33;1.43;;;;;;;;;;5037129;28;20409;-78
2023/11/22 13:31:01;;;;;;;5.67;2.00;;;;;;;;;;5044358;28;21030;-78
2023/11/22 13:33:28;;;;;;;2.03;0.70;;;;;;;;;;5049644;28;20443;-79
2023/11/22 13:35:53;;;;;;;1.40;0.60;;;;;;;;;;5046317;28;20425;-84
2023/11/22 13:38:19;;;;;;;1.90;0.90;;;;;;;;;;5033525;28;20980;-77
2023/11/22 13:40:46;;;;;;;2.27;0.80;;;;;;;;;;5024360;28;20426;-80
2023/11/22 13:43:13;;;;;;;1.37;0.80;;;;;;;;;;5018977;28;20454;-84
2023/11/22 13:45:41;;;;;;;1.80;0.90;;;;;;;;;;5014267;28;20437;-88
2023/11/22 13:48:09;;;;;;;1.80;1.20;;;;;;;;;;5015651;28;20549;-80
2023/11/22 13:50:35;;;;;;;1.43;0.70;;;;;;;;;;5016155;28;20431;-87
2023/11/22 13:53:01;;;;;;;1.57;0.70;;;;;;;;;;5030449;28;20431;-83
2023/11/22 13:55:27;;;;;;;1.27;0.37;;;;;;;;;;5033704;28;20967;-82
2023/11/22 13:57:54;;;;;;;1.43;0.73;;;;;;;;;;5033774;28;20967;-87
2023/11/22 14:00:26;;;;;;;1.53;0.83;;;;;;;;;;5036303;28;20434;-89
2023/11/22 14:02:56;;;;;;;2.10;0.70;;;;;;;;;;5039640;28;20406;-88
2023/11/22 14:05:22;;;;;;;3.10;1.43;;;;;;;;;;5038139;28;20459;-82
2023/11/22 14:07:48;;;;;;;2.60;0.47;;;;;;;;;;5041615;28;20401;-80
2023/11/22 14:10:16;;;;;;;2.87;1.23;;;;;;;;;;5040706;28;20419;-78
2023/11/22 14:12:42;;;;;;;1.60;0.80;;;;;;;;;;5051567;28;20960;-77
2023/11/22 14:15:09;;;;;;;2.00;0.70;;;;;;;;;;5052590;28;20459;-77
2023/11/22 14:17:35;;;;;;;2.93;0.87;;;;;;;;;;5051474;28;20455;-86
2023/11/22 14:20:02;;;;;;;1.53;0.57;;;;;;;;;;5053189;28;20452;-77
2023/11/22 14:22:28;;;;;;;2.00;0.63;;;;;;;;;;5053380;28;20416;-78
2023/11/22 14:24:54;;;;;;;3.50;1.57;;;;;;;;;;5052869;28;20426;-78
2023/11/22 14:27:20;;;;;;;2.30;0.87;;;;;;;;;;5002997;28;20437;-86
2023/11/22 14:29:49;;;;;;;1.50;0.80;;;;;;;;;;5033186;28;20496;-89
2023/11/22 14:32:16;;;;;;;3.30;1.20;;;;;;;;;;5033232;28;20471;-90
2023/11/22 14:34:43;;;;;;;3.10;1.60;;;;;;;;;;5032372;28;20416;-81
2023/11/22 14:37:09;;;;;;;3.07;1.07;;;;;;;;;;5032541;28;20768;-88
2023/11/22 14:39:35;;;;;;;4.23;0.90;;;;;;;;;;5027879;28;20477;-89